createdAt,value
2023-05-16T00:01:30.200Z,9.88
2023-05-16T00:03:57.381Z,9.88
2023-05-16T00:06:23.999Z,9.65
2023-05-16T00:08:50.645Z,8.88
2023-05-16T00:11:17.730Z,9.40
2023-05-16T00:13:44.358Z,10.07
2023-05-16T00:16:11.615Z,9.75
2023-05-16T00:18:38.704Z,8.48
2023-05-16T00:21:05.796Z,9.18
2023-05-16T00:23:32.678Z,8.52
2023-05-16T00:25:59.236Z,9.05
2023-05-16T00:28:25.912Z,7.60
2023-05-16T00:30:52.406Z,7.70
2023-05-16T00:33:19.255Z,7.75
2023-05-16T00:35:45.800Z,8.10
2023-05-16T00:38:12.591Z,8.10
2023-05-16T00:40:39.308Z,7.65
2023-05-16T00:43:05.802Z,7.18
2023-05-16T00:45:32.321Z,6.78
2023-05-16T00:47:58.895Z,6.85
2023-05-16T00:50:25.874Z,6.80
2023-05-16T00:52:52.555Z,7.05
2023-05-16T00:55:19.679Z,6.75
2023-05-16T00:57:46.742Z,6.65
2023-05-16T01:00:15.290Z,6.97
2023-05-16T01:02:42.138Z,6.60
2023-05-16T01:05:09.324Z,6.95
2023-05-16T01:07:36.101Z,6.97
2023-05-16T01:10:04.238Z,6.82
2023-05-16T01:12:42.458Z,6.47
2023-05-16T01:15:13.698Z,6.65
2023-05-16T01:18:08.716Z,6.60
2023-05-16T01:21:01.016Z,6.38
2023-05-16T01:23:38.627Z,6.50
2023-05-16T01:26:12.006Z,6.32
2023-05-16T01:28:40.397Z,7.20
2023-05-16T01:31:06.954Z,7.90
2023-05-16T01:33:33.449Z,7.55
2023-05-16T01:36:05.752Z,8.43
2023-05-16T01:38:57.492Z,8.13
2023-05-16T01:41:36.362Z,8.07
2023-05-16T01:44:06.443Z,8.05
2023-05-16T01:46:37.777Z,8.15
2023-05-16T01:49:17.299Z,8.02
2023-05-16T01:51:50.673Z,9.15
2023-05-16T01:54:19.341Z,9.02
2023-05-16T01:56:54.574Z,9.30
2023-05-16T01:59:22.276Z,10.40
2023-05-16T02:01:48.745Z,11.38
2023-05-16T02:04:15.923Z,11.68
2023-05-16T02:06:42.806Z,12.85
2023-05-16T02:09:09.335Z,13.25
2023-05-16T02:11:35.783Z,15.18
2023-05-16T02:14:02.266Z,15.20
2023-05-16T02:16:30.825Z,16.75
2023-05-16T02:18:58.743Z,16.67
2023-05-16T02:21:25.580Z,18.50
2023-05-16T02:23:52.094Z,19.25
2023-05-16T02:26:18.879Z,17.95
2023-05-16T02:28:45.970Z,19.42
2023-05-16T02:31:12.590Z,20.58
2023-05-16T02:33:39.678Z,20.92
2023-05-16T02:36:06.377Z,21.02
2023-05-16T02:38:32.860Z,20.05
2023-05-16T02:40:59.320Z,20.05
2023-05-16T02:43:25.776Z,20.42
2023-05-16T02:45:53.068Z,21.52
2023-05-16T02:48:19.657Z,21.38
2023-05-16T02:50:46.239Z,21.63
2023-05-16T02:53:13.236Z,20.67
2023-05-16T02:55:39.897Z,21.80
2023-05-16T02:58:06.468Z,21.27
2023-05-16T03:00:32.945Z,22.83
2023-05-16T03:02:59.511Z,21.75
2023-05-16T03:05:27.183Z,22.10
2023-05-16T03:07:53.938Z,23.02
2023-05-16T03:10:20.388Z,23.63
2023-05-16T03:12:46.940Z,23.35
2023-05-16T03:15:13.384Z,23.65
2023-05-16T03:17:39.937Z,22.48
2023-05-16T03:20:08.928Z,24.60
2023-05-16T03:22:35.469Z,22.85
2023-05-16T03:25:02.746Z,23.35
2023-05-16T03:27:29.212Z,24.75
2023-05-16T03:29:55.684Z,23.65
2023-05-16T03:32:22.137Z,22.52
2023-05-16T03:34:48.654Z,23.95
2023-05-16T03:37:16.097Z,22.92
2023-05-16T03:39:42.605Z,25.05
2023-05-16T03:42:10.162Z,25.02
2023-05-16T03:44:36.679Z,24.30
2023-05-16T03:47:03.199Z,24.75
2023-05-16T03:49:29.625Z,25.50
2023-05-16T03:51:56.080Z,25.40
2023-05-16T03:54:22.688Z,24.25
2023-05-16T03:56:49.149Z,24.48
2023-05-16T03:59:15.904Z,25.15
2023-05-16T04:01:42.438Z,22.98
2023-05-16T04:04:09.137Z,22.52
2023-05-16T04:06:35.793Z,20.90
2023-05-16T04:09:02.237Z,20.40
2023-05-16T04:11:28.787Z,20.08
2023-05-16T04:13:55.634Z,20.25
2023-05-16T04:16:22.102Z,19.73
2023-05-16T04:18:48.711Z,19.23
2023-05-16T04:21:15.387Z,19.13
2023-05-16T04:23:42.073Z,17.90
2023-05-16T04:26:08.626Z,18.13
2023-05-16T04:28:35.127Z,16.58
2023-05-16T04:31:02.059Z,16.25
2023-05-16T04:33:28.611Z,14.60
2023-05-16T04:35:55.086Z,15.00
2023-05-16T04:38:22.247Z,13.43
2023-05-16T04:40:50.744Z,13.30
2023-05-16T04:43:18.225Z,12.70
2023-05-16T04:45:44.841Z,12.57
2023-05-16T04:48:12.226Z,12.82
2023-05-16T04:50:38.677Z,13.93
2023-05-16T04:53:05.226Z,13.18
2023-05-16T04:55:31.824Z,13.93
2023-05-16T04:57:58.377Z,11.98
2023-05-16T05:00:25.316Z,12.27
2023-05-16T05:02:52.700Z,12.43
2023-05-16T05:05:19.640Z,12.10
2023-05-16T05:07:46.561Z,11.80
2023-05-16T05:10:13.243Z,11.15
2023-05-16T05:12:39.718Z,11.20
2023-05-16T05:15:07.061Z,10.93
2023-05-16T05:17:33.760Z,11.57
2023-05-16T05:20:02.678Z,10.48
2023-05-16T05:22:29.934Z,10.75
2023-05-16T05:24:56.600Z,10.48
2023-05-16T05:27:23.086Z,10.48
2023-05-16T05:29:49.583Z,10.52
2023-05-16T05:32:16.020Z,10.35
2023-05-16T05:34:42.538Z,10.55
2023-05-16T05:37:08.978Z,10.00
2023-05-16T05:39:35.572Z,10.60
2023-05-16T05:42:03.900Z,10.73
2023-05-16T05:44:30.630Z,10.73
2023-05-16T05:46:57.619Z,9.85
2023-05-16T05:49:25.721Z,9.95
2023-05-16T05:51:52.303Z,10.65
2023-05-16T05:54:19.646Z,10.63
2023-05-16T05:56:46.224Z,10.23
2023-05-16T05:59:12.999Z,10.27
2023-05-16T06:01:39.667Z,10.68
2023-05-16T06:04:06.378Z,10.48
2023-05-16T06:06:33.061Z,10.07
2023-05-16T06:08:59.534Z,10.02
2023-05-16T06:11:25.997Z,10.68
2023-05-16T06:13:52.737Z,10.90
2023-05-16T06:16:19.205Z,10.43
2023-05-16T06:18:45.875Z,10.38
2023-05-16T06:21:12.364Z,10.60
2023-05-16T06:23:38.857Z,10.00
2023-05-16T06:26:05.496Z,10.60
2023-05-16T06:28:31.991Z,10.68
2023-05-16T06:30:58.445Z,10.13
2023-05-16T06:33:24.952Z,9.55
2023-05-16T06:35:52.391Z,9.38
2023-05-16T06:38:19.704Z,9.90
2023-05-16T06:40:46.466Z,9.50
2023-05-16T06:43:13.055Z,9.20
2023-05-16T06:45:39.540Z,10.20
2023-05-16T06:48:07.601Z,8.90
2023-05-16T06:50:35.639Z,8.75
2023-05-16T06:53:02.434Z,8.90
2023-05-16T06:55:29.136Z,8.50
2023-05-16T06:57:55.872Z,8.63
2023-05-16T07:00:22.386Z,8.43
2023-05-16T07:02:48.953Z,8.30
2023-05-16T07:05:15.594Z,7.15
2023-05-16T07:07:42.142Z,7.20
2023-05-16T07:10:09.042Z,7.40
2023-05-16T07:12:38.359Z,6.97
2023-05-16T07:15:05.659Z,6.90
2023-05-16T07:17:32.189Z,5.90
2023-05-16T07:19:58.701Z,5.60
2023-05-16T07:22:25.210Z,5.32
2023-05-16T07:24:54.296Z,5.50
2023-05-16T07:27:23.370Z,5.00
2023-05-16T07:29:50.151Z,4.78
2023-05-16T07:32:16.742Z,4.80
2023-05-16T07:34:43.395Z,4.65
2023-05-16T07:37:12.915Z,4.90
2023-05-16T07:39:40.298Z,4.32
2023-05-16T07:42:07.707Z,4.78
2023-05-16T07:44:34.447Z,4.20
2023-05-16T07:47:01.026Z,3.80
2023-05-16T07:49:27.555Z,3.10
2023-05-16T07:51:54.100Z,3.10
2023-05-16T07:54:20.663Z,2.30
2023-05-16T07:56:47.158Z,2.60
2023-05-16T07:59:13.874Z,2.22
2023-05-16T08:01:40.519Z,2.10
2023-05-16T08:04:07.126Z,1.90
2023-05-16T08:06:34.686Z,2.08
2023-05-16T08:09:01.197Z,1.92
2023-05-16T08:11:28.090Z,2.17
2023-05-16T08:13:54.598Z,1.80
2023-05-16T08:16:21.187Z,1.70
2023-05-16T08:18:47.797Z,1.52
2023-05-16T08:21:14.424Z,1.90
2023-05-16T08:23:40.919Z,1.63
2023-05-16T08:26:07.999Z,1.40
2023-05-16T08:28:34.659Z,1.60
2023-05-16T08:31:01.165Z,1.83
2023-05-16T08:33:27.654Z,1.85
2023-05-16T08:35:54.154Z,2.03
2023-05-16T08:38:20.942Z,2.17
2023-05-16T08:40:47.565Z,2.03
2023-05-16T08:43:14.282Z,2.42
2023-05-16T08:45:41.928Z,2.78
2023-05-16T08:48:10.667Z,3.00
2023-05-16T08:50:37.721Z,3.50
2023-05-16T08:53:07.236Z,3.47
2023-05-16T08:55:35.178Z,3.95
2023-05-16T08:58:02.177Z,3.95
2023-05-16T09:00:28.775Z,4.05
2023-05-16T09:02:55.892Z,4.30
2023-05-16T09:05:22.955Z,4.20
2023-05-16T09:07:51.982Z,3.67
2023-05-16T09:10:19.144Z,3.35
2023-05-16T09:12:45.676Z,2.88
2023-05-16T09:15:12.274Z,2.80
2023-05-16T09:17:43.492Z,2.95
2023-05-16T09:20:17.878Z,3.13
2023-05-16T09:22:54.794Z,2.92
2023-05-16T09:25:30.279Z,1.80
2023-05-16T09:27:59.067Z,2.30
2023-05-16T09:30:35.240Z,2.30
2023-05-16T09:33:02.066Z,2.10
2023-05-16T09:37:58.312Z,2.10
2023-05-16T09:40:24.870Z,2.10
2023-05-16T09:43:02.220Z,1.90
2023-05-16T09:45:28.873Z,1.90
2023-05-16T09:48:01.566Z,2.13
2023-05-16T09:50:28.199Z,2.30
2023-05-16T09:52:54.736Z,2.33
2023-05-16T09:55:23.079Z,2.08
2023-05-16T09:57:49.896Z,2.22
2023-05-16T10:00:17.040Z,10.30
2023-05-16T10:02:43.874Z,3.15
2023-05-16T10:05:10.419Z,8.55
2023-05-16T10:07:38.178Z,2.55
2023-05-16T10:10:08.952Z,9.82
2023-05-16T10:12:37.146Z,2.90
2023-05-16T10:15:05.837Z,2.70
2023-05-16T10:17:34.653Z,40.97
2023-05-16T10:20:05.602Z,4.55
2023-05-16T10:22:35.955Z,2.25
2023-05-16T10:25:10.972Z,2.45
2023-05-16T10:27:37.588Z,2.25
2023-05-16T10:30:05.795Z,2.78
2023-05-16T10:32:33.006Z,2.65
2023-05-16T10:35:03.510Z,2.45
2023-05-16T10:37:31.690Z,3.45
2023-05-16T10:40:00.098Z,2.40
2023-05-16T10:42:26.725Z,2.63
2023-05-16T10:45:09.464Z,2.95
2023-05-16T10:47:36.122Z,1.90
2023-05-16T10:50:03.154Z,2.05
2023-05-16T10:52:34.340Z,1.83
2023-05-16T10:55:03.085Z,2.20
2023-05-16T10:57:33.022Z,2.65
2023-05-16T11:00:01.768Z,2.03
2023-05-16T11:02:33.868Z,1.80
2023-05-16T11:05:03.020Z,2.30
2023-05-16T11:07:37.034Z,2.28
2023-05-16T11:10:05.424Z,2.22
2023-05-16T11:12:51.845Z,2.25
2023-05-16T11:15:24.826Z,2.10
2023-05-16T11:18:03.292Z,1.70
2023-05-16T11:20:34.945Z,2.30
2023-05-16T11:23:21.945Z,2.28
2023-05-16T11:25:52.581Z,1.95
2023-05-16T11:28:19.972Z,1.65
2023-05-16T11:30:52.596Z,1.75
2023-05-16T11:33:19.416Z,1.75
2023-05-16T11:38:43.375Z,1.92
2023-05-16T11:41:10.108Z,1.35
2023-05-16T11:43:41.396Z,1.42
2023-05-16T11:46:11.578Z,1.38
2023-05-16T11:48:38.386Z,1.80
2023-05-16T11:51:05.191Z,1.70
2023-05-16T11:53:31.766Z,1.70
2023-05-16T11:56:00.232Z,1.73
2023-05-16T11:58:27.377Z,1.90
2023-05-16T12:00:53.944Z,1.83
2023-05-16T12:03:25.073Z,1.85
2023-05-16T12:05:57.017Z,1.35
2023-05-16T12:08:24.644Z,1.80
2023-05-16T12:10:53.095Z,2.05
2023-05-16T12:13:20.790Z,1.63
2023-05-16T12:15:47.999Z,1.60
2023-05-16T12:18:15.560Z,1.85
2023-05-16T12:20:44.210Z,1.58
2023-05-16T12:23:12.154Z,1.88
2023-05-16T12:25:43.842Z,1.77
2023-05-16T12:28:12.567Z,1.92
2023-05-16T12:30:42.257Z,1.83
2023-05-16T12:33:14.057Z,1.77
2023-05-16T12:35:42.962Z,3.40
2023-05-16T12:38:14.112Z,1.73
2023-05-16T12:40:42.072Z,1.92
2023-05-16T12:43:22.927Z,1.42
2023-05-16T12:45:52.903Z,1.73
2023-05-16T12:48:19.706Z,1.40
2023-05-16T12:50:46.534Z,1.55
2023-05-16T12:53:13.967Z,1.40
2023-05-16T12:55:41.164Z,1.48
2023-05-16T12:58:08.038Z,1.60
2023-05-16T13:00:34.711Z,1.77
2023-05-16T13:03:01.598Z,1.65
2023-05-16T13:05:28.168Z,2.08
2023-05-16T13:07:54.685Z,1.42
2023-05-16T13:10:21.358Z,1.55
2023-05-16T13:12:47.884Z,1.70
2023-05-16T13:15:15.132Z,3.20
2023-05-16T13:17:45.910Z,7.75
2023-05-16T13:20:14.857Z,2.92
2023-05-16T13:22:43.552Z,5.88
2023-05-16T13:25:10.672Z,7.38
2023-05-16T13:27:37.357Z,14.20
2023-05-16T13:30:04.454Z,12.43
2023-05-16T13:32:31.062Z,6.22
2023-05-16T13:34:57.651Z,8.55
2023-05-16T13:37:27.183Z,26.25
2023-05-16T13:39:54.829Z,7.40
2023-05-16T13:42:21.626Z,7.43
2023-05-16T13:44:48.270Z,2.10
2023-05-16T13:47:14.757Z,1.60
2023-05-16T13:49:41.302Z,3.15
2023-05-16T13:52:07.795Z,1.75
2023-05-16T13:54:34.308Z,1.35
2023-05-16T13:57:02.140Z,1.90
2023-05-16T13:59:56.290Z,1.70
2023-05-16T14:02:15.592Z,1.50
2023-05-16T14:04:42.121Z,1.35
2023-05-16T14:07:08.647Z,1.20
2023-05-16T14:09:38.999Z,1.52
2023-05-16T14:12:07.252Z,1.40
2023-05-16T14:14:37.400Z,1.58
2023-05-16T14:17:04.241Z,1.30
2023-05-16T14:19:31.375Z,1.30
2023-05-16T14:21:58.065Z,1.50
2023-05-16T14:24:24.515Z,1.48
2023-05-16T14:26:58.104Z,1.42
2023-05-16T14:31:52.039Z,1.10
2023-05-16T14:34:18.662Z,0.90
2023-05-16T14:36:45.174Z,1.10
2023-05-16T14:39:12.195Z,1.10
2023-05-16T14:41:38.662Z,1.30
2023-05-16T14:44:05.199Z,1.02
2023-05-16T14:46:31.752Z,1.08
2023-05-16T14:48:58.321Z,1.52
2023-05-16T14:51:24.787Z,1.63
2023-05-16T14:53:51.336Z,1.40
2023-05-16T14:56:17.852Z,1.35
2023-05-16T14:58:44.364Z,1.25
2023-05-16T15:01:11.063Z,1.20
2023-05-16T15:03:53.751Z,1.45
2023-05-16T15:06:22.414Z,1.10
2023-05-16T15:08:48.953Z,1.20
2023-05-16T15:11:15.567Z,1.10
2023-05-16T15:13:42.129Z,1.13
2023-05-16T15:16:08.711Z,1.33
2023-05-16T15:18:35.334Z,1.10
2023-05-16T15:21:01.855Z,1.10
2023-05-16T15:23:28.372Z,1.15
2023-05-16T15:25:54.938Z,1.15
2023-05-16T15:28:22.706Z,1.92
2023-05-16T15:30:50.634Z,1.00
2023-05-16T15:33:17.212Z,1.02
2023-05-16T15:35:43.697Z,1.13
2023-05-16T15:38:10.223Z,0.80
2023-05-16T15:40:36.734Z,0.90
2023-05-16T15:43:03.934Z,0.93
2023-05-16T15:45:30.940Z,0.70
2023-05-16T15:47:57.766Z,1.13
2023-05-16T15:50:24.277Z,1.05
2023-05-16T15:52:51.002Z,0.90
2023-05-16T15:55:17.616Z,1.08
2023-05-16T15:57:44.148Z,1.42
2023-05-16T16:00:11.165Z,1.08
2023-05-16T16:02:42.375Z,1.10
2023-05-16T16:05:09.071Z,1.15
2023-05-16T16:07:35.616Z,1.48
2023-05-16T16:10:02.203Z,1.02
2023-05-16T16:12:31.880Z,0.93
2023-05-16T16:14:58.471Z,0.80
2023-05-16T16:17:25.007Z,1.08
2023-05-16T16:19:51.542Z,1.10
2023-05-16T16:22:18.545Z,1.33
2023-05-16T16:24:46.134Z,0.82
2023-05-16T16:27:12.618Z,0.98
2023-05-16T16:29:39.123Z,0.90
2023-05-16T16:32:06.056Z,0.80
2023-05-16T16:34:32.559Z,1.10
2023-05-16T16:36:59.122Z,1.20
2023-05-16T16:39:26.156Z,1.00
2023-05-16T16:41:52.664Z,1.13
2023-05-16T16:44:19.745Z,1.10
2023-05-16T16:46:46.410Z,0.90
2023-05-16T16:49:13.100Z,1.15
2023-05-16T16:51:39.665Z,1.00
2023-05-16T16:54:06.174Z,0.98
2023-05-16T16:56:32.693Z,1.00
2023-05-16T16:58:59.225Z,1.90
2023-05-16T17:01:28.181Z,2.33
2023-05-16T17:03:56.119Z,1.70
2023-05-16T17:06:23.289Z,1.60
2023-05-16T17:08:50.141Z,1.25
2023-05-16T17:11:22.714Z,1.30
2023-05-16T17:13:49.790Z,1.27
2023-05-16T17:16:16.714Z,1.15
2023-05-16T17:18:43.329Z,1.50
2023-05-16T17:21:12.772Z,1.33
2023-05-16T17:23:40.698Z,1.17
2023-05-16T17:26:09.701Z,1.50
2023-05-16T17:28:36.217Z,1.42
2023-05-16T17:31:03.959Z,1.23
2023-05-16T17:33:30.598Z,1.85
2023-05-16T17:35:57.093Z,1.42
2023-05-16T17:38:24.088Z,1.27
2023-05-16T17:40:50.571Z,1.13
2023-05-16T17:43:17.073Z,8.68
2023-05-16T17:45:43.576Z,7.63
2023-05-16T17:48:10.198Z,1.55
2023-05-16T17:50:37.291Z,2.08
2023-05-16T17:53:04.785Z,2.10
2023-05-16T17:55:31.344Z,3.28
2023-05-16T17:57:58.208Z,3.50
2023-05-16T18:00:25.074Z,1.88
2023-05-16T18:02:53.341Z,2.33
2023-05-16T18:05:25.232Z,1.92
2023-05-16T18:07:51.834Z,1.80
2023-05-16T18:10:18.443Z,2.50
2023-05-16T18:12:44.982Z,2.88
2023-05-16T18:15:11.768Z,2.30
2023-05-16T18:17:38.404Z,1.88
2023-05-16T18:20:09.592Z,1.60
2023-05-16T18:22:37.188Z,1.75
2023-05-16T18:25:05.611Z,2.25
2023-05-16T18:27:33.128Z,1.90
2023-05-16T18:29:59.641Z,2.90
2023-05-16T18:32:26.214Z,1.70
2023-05-16T18:34:52.765Z,1.95
2023-05-16T18:37:19.438Z,1.40
2023-05-16T18:39:46.093Z,1.50
2023-05-16T18:42:12.823Z,1.15
2023-05-16T18:44:39.307Z,1.42
2023-05-16T18:47:06.096Z,11.07
2023-05-16T18:49:33.449Z,3.92
2023-05-16T18:51:59.965Z,8.35
2023-05-16T18:54:26.518Z,2.20
2023-05-16T18:56:53.012Z,9.68
2023-05-16T18:59:19.603Z,15.07
2023-05-16T19:01:46.394Z,11.15
2023-05-16T19:04:12.948Z,2.60
2023-05-16T19:06:39.496Z,1.73
2023-05-16T19:09:06.008Z,4.05
2023-05-16T19:11:32.535Z,2.20
2023-05-16T19:13:59.034Z,2.63
2023-05-16T19:16:26.331Z,6.43
2023-05-16T19:18:53.176Z,15.40
2023-05-16T19:21:19.800Z,2.53
2023-05-16T19:23:46.745Z,2.50
2023-05-16T19:26:13.748Z,3.15
2023-05-16T19:28:42.016Z,5.90
2023-05-16T19:31:09.784Z,3.88
2023-05-16T19:33:36.955Z,5.97
2023-05-16T19:36:05.045Z,16.92
2023-05-16T19:38:31.694Z,1.80
2023-05-16T19:40:59.713Z,1.20
2023-05-16T19:43:26.230Z,1.55
2023-05-16T19:45:52.864Z,2.83
2023-05-16T19:48:19.553Z,1.40
2023-05-16T19:50:46.246Z,1.70
2023-05-16T19:53:12.875Z,1.17
2023-05-16T19:55:39.427Z,1.50
2023-05-16T19:58:06.427Z,1.48
2023-05-16T20:00:32.986Z,1.40
2023-05-16T20:02:59.621Z,1.50
2023-05-16T20:05:27.097Z,1.35
2023-05-16T20:07:54.583Z,1.02
2023-05-16T20:10:22.106Z,2.15
2023-05-16T20:12:48.781Z,2.20
2023-05-16T20:15:15.270Z,1.08
2023-05-16T20:17:41.813Z,1.60
2023-05-16T20:20:09.960Z,1.35
2023-05-16T20:22:41.293Z,1.58
2023-05-16T20:25:09.278Z,1.48
2023-05-16T20:27:35.955Z,1.13
2023-05-16T20:30:02.923Z,1.20
2023-05-16T20:32:29.459Z,1.00
2023-05-16T20:34:56.276Z,1.13
2023-05-16T20:37:26.497Z,1.25
2023-05-16T20:39:54.241Z,1.20
2023-05-16T20:42:20.940Z,1.23
2023-05-16T20:44:47.462Z,1.35
2023-05-16T20:47:13.962Z,1.40
2023-05-16T20:49:40.644Z,1.52
2023-05-16T20:52:07.319Z,1.65
2023-05-16T20:54:33.985Z,1.40
2023-05-16T20:57:00.666Z,1.20
2023-05-16T20:59:27.199Z,1.42
2023-05-16T21:01:57.480Z,1.33
2023-05-16T21:04:24.098Z,1.23
2023-05-16T21:06:50.773Z,1.30
2023-05-16T21:09:17.717Z,1.10
2023-05-16T21:11:44.233Z,1.20
2023-05-16T21:14:10.827Z,1.33
2023-05-16T21:16:37.320Z,1.35
2023-05-16T21:19:04.315Z,1.17
2023-05-16T21:21:31.696Z,1.25
2023-05-16T21:23:58.220Z,1.73
2023-05-16T21:26:24.826Z,1.27
2023-05-16T21:28:54.960Z,1.33
2023-05-16T21:31:21.820Z,1.33
2023-05-16T21:33:51.785Z,1.33
2023-05-16T21:36:21.253Z,1.17
2023-05-16T21:38:48.205Z,1.10
2023-05-16T21:41:15.054Z,1.63
2023-05-16T21:43:41.544Z,1.63
2023-05-16T21:46:08.076Z,1.67
2023-05-16T21:48:34.679Z,1.13
2023-05-16T21:51:01.323Z,1.40
2023-05-16T21:53:27.830Z,1.27
2023-05-16T21:55:54.351Z,1.27
2023-05-16T21:58:21.919Z,1.33
2023-05-16T22:00:49.491Z,1.15
2023-05-16T22:03:18.972Z,1.63
2023-05-16T22:05:48.650Z,1.20
2023-05-16T22:08:15.550Z,1.35
2023-05-16T22:10:42.509Z,1.40
2023-05-16T22:13:09.125Z,1.23
2023-05-16T22:15:35.781Z,1.60
2023-05-16T22:18:02.437Z,1.60
2023-05-16T22:20:29.715Z,1.73
2023-05-16T22:22:56.605Z,1.50
2023-05-16T22:25:23.214Z,1.58
2023-05-16T22:27:49.758Z,1.52
2023-05-16T22:30:16.383Z,1.63
2023-05-16T22:32:43.085Z,1.70
2023-05-16T22:35:09.742Z,1.30
2023-05-16T22:37:36.225Z,1.83
2023-05-16T22:40:02.797Z,1.65
2023-05-16T22:42:30.390Z,1.42
2023-05-16T22:44:57.114Z,1.58
2023-05-16T22:47:23.664Z,1.80
2023-05-16T22:49:50.172Z,1.60
2023-05-16T22:52:16.678Z,1.63
2023-05-16T22:54:43.172Z,1.55
2023-05-16T22:57:09.676Z,1.67
2023-05-16T22:59:36.176Z,1.60
2023-05-16T23:02:02.683Z,1.80
2023-05-16T23:04:29.269Z,1.70
2023-05-16T23:06:55.805Z,1.60
2023-05-16T23:09:22.549Z,1.80
2023-05-16T23:11:49.048Z,2.17
2023-05-16T23:14:15.567Z,1.80
2023-05-16T23:16:42.046Z,1.80
2023-05-16T23:19:09.793Z,2.03
2023-05-16T23:21:36.501Z,2.10
2023-05-16T23:24:03.034Z,2.20
2023-05-16T23:26:29.592Z,2.20
2023-05-16T23:28:56.081Z,2.22
2023-05-16T23:31:22.615Z,2.53
2023-05-16T23:33:49.454Z,2.80
2023-05-16T23:36:16.013Z,1.90
2023-05-16T23:38:42.544Z,2.05
2023-05-16T23:41:09.053Z,2.45
2023-05-16T23:43:35.530Z,2.45
2023-05-16T23:46:02.070Z,2.40
2023-05-16T23:48:28.669Z,2.50
2023-05-16T23:50:55.270Z,2.20
2023-05-16T23:53:21.754Z,2.30
2023-05-16T23:55:48.251Z,2.42
2023-05-16T23:58:14.770Z,2.45
